Accueil
METAR-TAF:

METAR-TAF

Aéroports :

Natchez-Adams County Airport (Hardy-Anders Field)

Natchez, Mississippi, États-Unis

latitude: 31-37N, longitude: 091-18W, altitude: 83 m

Observation

Le bulletin a été fait il y a 17 minutes, à 12:56 UTC
Vent calme
Température 26°C
Humidité 84%
Pression 1022 hPa
Visibilité: 16.1 km
Ciel clair

METAR: KHEZ 131256Z AUTO 00000KT 10SM CLR 26/23 A3019 RMK AO2 SLP223 T02610233

Heure: 08:13 (13:13 UTC)

Prévision

Le bulletin a été fait il y a 1 heure et 49 minutes, à 11:24 UTC
Prévision valable du 13 à 12 UTC au 14 à 12 UTC
Vent 4 kt de ouest/nord-ouest
Visibilité: 10 km
Nuages épars à une hauteur de 6000 ft
Probabilité 30%
du 13 à 21 UTC au 14 à 01 UTC
Visibilité: 10 km
Nuages fragmentés à une hauteur de 5000 ft, Cumulonimbus.
orage, pluie faible,

TAF: KHEZ 131124Z 1312/1412 30004KT P6SM SCT060 PROB30 1321/1401 P6SM -TSRA BKN050CB

Observations et prévisions météorologiques de plus de 4000 aéroports (messages METAR et TAF).

Les stations disponibles sont représentées par des disques jaunes et rouges sur la carte.

Passer la souris dessus pour voir le nom de la station.

Cliquer dessus pour voir les observations et prévisions météorologiques.

Pour changer de carte: cliquez sur les boutons verts avec une croix noire pour zoomer, sur le bouton vert avec un tiret pour effectuer un zoom arrière, ou sur les flèches vertes pour les cartes adjacentes.


METAR-TAF: